createdAt,value
2018-12-26T00:01:36.404Z,3.70
2018-12-26T00:04:41.511Z,3.70
2018-12-26T00:07:46.604Z,3.80
2018-12-26T00:10:51.707Z,3.80
2018-12-26T00:13:56.675Z,3.80
2018-12-26T00:17:01.631Z,3.80
2018-12-26T00:20:06.973Z,3.80
2018-12-26T00:23:11.944Z,3.70
2018-12-26T00:26:17.139Z,3.70
2018-12-26T00:29:22.106Z,3.60
2018-12-26T00:32:27.135Z,3.60
2018-12-26T00:35:32.099Z,3.50
2018-12-26T00:38:37.186Z,3.50
2018-12-26T00:41:42.141Z,3.50
2018-12-26T00:44:47.187Z,3.40
2018-12-26T00:47:52.215Z,3.40
2018-12-26T00:50:57.184Z,3.30
2018-12-26T00:54:02.237Z,3.20
2018-12-26T00:57:07.339Z,3.10
2018-12-26T01:00:12.458Z,3.00
2018-12-26T01:03:17.564Z,3.00
2018-12-26T01:06:22.599Z,2.90
2018-12-26T01:09:27.715Z,2.90
2018-12-26T01:12:32.814Z,2.90
2018-12-26T01:15:37.864Z,2.90
2018-12-26T01:18:42.823Z,2.90
2018-12-26T01:21:47.926Z,2.90
2018-12-26T01:24:52.975Z,2.80
2018-12-26T01:27:57.999Z,2.80
2018-12-26T01:31:02.962Z,2.90
2018-12-26T01:34:07.924Z,2.80
2018-12-26T01:37:12.955Z,2.90
2018-12-26T01:40:18.040Z,2.80
2018-12-26T01:43:23.087Z,2.90
2018-12-26T01:46:28.057Z,2.90
2018-12-26T01:49:32.994Z,2.90
2018-12-26T01:52:38.051Z,3.00
2018-12-26T01:55:43.127Z,3.10
2018-12-26T01:58:48.106Z,3.20
2018-12-26T02:01:53.139Z,3.30
2018-12-26T02:04:58.161Z,3.30
2018-12-26T02:08:03.566Z,3.40
2018-12-26T02:11:08.542Z,3.50
2018-12-26T02:14:13.562Z,3.50
2018-12-26T02:17:18.526Z,3.50
2018-12-26T02:20:24.348Z,3.60
2018-12-26T02:23:29.467Z,3.60
2018-12-26T02:26:36.565Z,3.50
2018-12-26T02:29:41.060Z,3.40
2018-12-26T02:32:46.225Z,3.30
2018-12-26T02:35:51.246Z,3.10
2018-12-26T02:38:56.218Z,3.10
2018-12-26T02:42:01.251Z,3.00
2018-12-26T02:45:06.833Z,2.90
2018-12-26T02:48:11.783Z,2.90
2018-12-26T02:51:16.832Z,2.90
2018-12-26T02:54:21.787Z,3.00
2018-12-26T02:57:26.756Z,3.00
2018-12-26T03:00:31.797Z,3.10
2018-12-26T03:03:36.746Z,3.20
2018-12-26T03:06:41.786Z,3.20
2018-12-26T03:09:46.798Z,3.30
2018-12-26T03:12:51.784Z,3.30
2018-12-26T03:15:56.873Z,3.40
2018-12-26T03:19:01.919Z,3.40
2018-12-26T03:22:07.030Z,3.40
2018-12-26T03:25:12.136Z,3.40
2018-12-26T03:28:17.088Z,3.40
2018-12-26T03:31:22.113Z,3.40
2018-12-26T03:34:27.135Z,3.50
2018-12-26T03:37:32.327Z,3.50
2018-12-26T03:40:37.375Z,3.40
2018-12-26T03:43:42.480Z,3.40
2018-12-26T03:46:47.581Z,3.30
2018-12-26T03:49:54.264Z,3.10
2018-12-26T03:52:59.770Z,3.00
2018-12-26T03:56:04.914Z,2.80
2018-12-26T03:59:09.939Z,2.70
2018-12-26T04:02:15.029Z,2.70
2018-12-26T04:05:20.153Z,2.70
2018-12-26T04:08:25.196Z,2.60
2018-12-26T04:11:30.394Z,2.60
2018-12-26T04:14:35.594Z,2.60
2018-12-26T04:17:40.535Z,2.50
2018-12-26T04:20:45.752Z,2.50
2018-12-26T04:23:50.775Z,2.50
2018-12-26T04:26:55.758Z,2.40
2018-12-26T04:30:00.923Z,2.40
2018-12-26T04:33:05.898Z,2.40
2018-12-26T04:36:10.846Z,2.40
2018-12-26T04:39:15.894Z,2.40
2018-12-26T04:42:20.939Z,2.30
2018-12-26T04:45:25.963Z,2.30
2018-12-26T04:48:30.999Z,2.20
2018-12-26T04:51:35.953Z,2.10
2018-12-26T04:54:40.923Z,2.00
2018-12-26T04:57:45.864Z,2.00
2018-12-26T05:00:50.816Z,2.00
2018-12-26T05:03:55.834Z,2.00
2018-12-26T05:07:00.807Z,2.00
2018-12-26T05:10:06.315Z,2.00
2018-12-26T05:13:11.412Z,1.90
2018-12-26T05:16:16.445Z,1.90
2018-12-26T05:19:21.471Z,1.90
2018-12-26T05:22:26.575Z,1.80
2018-12-26T05:25:31.615Z,1.80
2018-12-26T05:28:36.630Z,1.80
2018-12-26T05:31:41.688Z,1.70
2018-12-26T05:34:46.704Z,1.80
2018-12-26T05:37:51.650Z,1.70
2018-12-26T05:40:56.698Z,1.70
2018-12-26T05:44:01.660Z,1.70
2018-12-26T05:47:06.623Z,1.70
2018-12-26T05:50:11.577Z,1.70
2018-12-26T05:53:16.598Z,1.70
2018-12-26T05:56:21.646Z,1.60
2018-12-26T05:59:26.600Z,1.60
2018-12-26T06:02:31.547Z,1.60
2018-12-26T06:05:36.668Z,1.60
2018-12-26T06:08:41.620Z,1.50
2018-12-26T06:11:46.727Z,1.50
2018-12-26T06:14:51.779Z,1.40
2018-12-26T06:17:56.731Z,1.40
2018-12-26T06:21:01.702Z,1.40
2018-12-26T06:24:06.663Z,1.30
2018-12-26T06:27:11.707Z,1.30
2018-12-26T06:30:16.804Z,1.30
2018-12-26T06:33:21.766Z,1.30
2018-12-26T06:36:26.734Z,1.30
2018-12-26T06:39:31.690Z,1.20
2018-12-26T06:42:36.784Z,1.20
2018-12-26T06:45:41.734Z,1.20
2018-12-26T06:48:46.705Z,1.20
2018-12-26T06:51:51.732Z,1.10
2018-12-26T06:54:56.695Z,1.10
2018-12-26T06:58:01.723Z,1.10
2018-12-26T07:01:06.766Z,1.10
2018-12-26T07:04:11.723Z,1.10
2018-12-26T07:07:16.671Z,1.10
2018-12-26T07:10:21.708Z,1.10
2018-12-26T07:13:26.670Z,1.10
2018-12-26T07:16:31.650Z,1.10
2018-12-26T07:19:36.666Z,1.10
2018-12-26T07:22:41.706Z,1.10
2018-12-26T07:25:46.679Z,1.10
2018-12-26T07:28:51.618Z,1.10
2018-12-26T07:31:56.592Z,1.10
2018-12-26T07:35:01.558Z,1.10
2018-12-26T07:38:06.519Z,1.20
2018-12-26T07:41:11.560Z,1.10
2018-12-26T07:44:16.511Z,1.10
2018-12-26T07:47:21.483Z,1.10
2018-12-26T07:50:26.451Z,1.10
2018-12-26T07:53:31.491Z,1.10
2018-12-26T07:56:36.525Z,1.10
2018-12-26T07:59:41.562Z,1.10
2018-12-26T08:02:46.528Z,1.10
2018-12-26T08:05:51.486Z,1.10
2018-12-26T08:08:56.471Z,1.10
2018-12-26T08:12:01.451Z,1.10
2018-12-26T08:15:10.486Z,1.10
2018-12-26T08:18:13.263Z,1.20
2018-12-26T08:21:18.379Z,1.30
2018-12-26T08:24:23.410Z,1.30
2018-12-26T08:27:28.430Z,1.30
2018-12-26T08:30:33.485Z,1.30
2018-12-26T08:33:38.519Z,1.30
2018-12-26T08:36:43.633Z,1.30
2018-12-26T08:39:48.730Z,1.40
2018-12-26T08:42:53.755Z,1.40
2018-12-26T08:45:58.712Z,1.40
2018-12-26T08:49:03.735Z,1.50
2018-12-26T08:52:08.758Z,1.50
2018-12-26T08:55:13.723Z,1.60
2018-12-26T08:58:18.783Z,1.60
2018-12-26T09:01:23.738Z,1.70
2018-12-26T09:04:28.699Z,1.70
2018-12-26T09:07:33.655Z,1.80
2018-12-26T09:10:38.619Z,1.90
2018-12-26T09:13:43.714Z,1.90
2018-12-26T09:16:48.676Z,2.00
2018-12-26T09:19:53.639Z,2.10
2018-12-26T09:22:58.588Z,2.20
2018-12-26T09:26:04.793Z,2.20
2018-12-26T09:29:09.738Z,2.20
2018-12-26T09:32:14.918Z,2.30
2018-12-26T09:35:21.007Z,2.30
2018-12-26T09:38:26.095Z,2.30
2018-12-26T09:41:31.055Z,2.30
2018-12-26T09:44:36.039Z,2.30
2018-12-26T09:47:41.018Z,2.40
2018-12-26T09:50:45.963Z,2.40
2018-12-26T09:53:50.924Z,2.50
2018-12-26T09:56:55.876Z,2.50
2018-12-26T10:00:00.908Z,2.60
2018-12-26T10:03:05.957Z,2.60
2018-12-26T10:06:10.905Z,2.60
2018-12-26T10:09:15.935Z,2.70
2018-12-26T10:12:20.975Z,2.80
2018-12-26T10:15:26.077Z,2.90
2018-12-26T10:18:31.216Z,2.90
2018-12-26T10:21:36.151Z,3.00
2018-12-26T10:24:41.107Z,3.10
2018-12-26T10:27:46.078Z,3.20
2018-12-26T10:30:51.045Z,3.20
2018-12-26T10:33:56.007Z,3.20
2018-12-26T10:37:01.048Z,3.30
2018-12-26T10:40:06.350Z,3.40
2018-12-26T10:43:11.331Z,3.50
2018-12-26T10:46:16.354Z,3.60
2018-12-26T10:49:21.304Z,3.80
2018-12-26T10:52:26.318Z,4.00
2018-12-26T10:55:31.413Z,4.10
2018-12-26T10:58:36.446Z,4.20
2018-12-26T11:01:41.414Z,4.30
2018-12-26T11:04:48.577Z,4.30
2018-12-26T11:07:53.251Z,4.40
2018-12-26T11:10:58.195Z,4.40
2018-12-26T11:14:03.231Z,4.30
2018-12-26T11:17:08.672Z,4.30
2018-12-26T11:20:15.626Z,4.30
2018-12-26T11:23:20.693Z,4.30
2018-12-26T11:26:25.783Z,4.20
2018-12-26T11:29:30.760Z,4.20
2018-12-26T11:32:35.798Z,4.30
2018-12-26T11:35:40.838Z,4.30
2018-12-26T11:38:45.938Z,4.40
2018-12-26T11:41:51.075Z,4.50
2018-12-26T11:44:56.049Z,4.60
2018-12-26T11:48:01.036Z,4.60
2018-12-26T11:51:06.153Z,4.70
2018-12-26T11:54:11.095Z,4.60
2018-12-26T11:57:17.478Z,4.60
2018-12-26T12:00:22.639Z,4.60
2018-12-26T12:03:27.742Z,4.70
2018-12-26T12:06:32.862Z,4.70
2018-12-26T12:09:37.967Z,4.80
2018-12-26T12:12:43.051Z,4.90
2018-12-26T12:15:48.144Z,5.00
2018-12-26T12:18:53.243Z,5.10
2018-12-26T12:21:58.328Z,5.10
2018-12-26T12:25:03.358Z,5.00
2018-12-26T12:28:08.382Z,5.00
2018-12-26T12:31:13.417Z,5.00
2018-12-26T12:34:18.851Z,4.90
2018-12-26T12:37:23.962Z,4.90
2018-12-26T12:40:29.077Z,4.80
2018-12-26T12:43:34.126Z,4.90
2018-12-26T12:46:39.351Z,4.90
2018-12-26T12:49:44.464Z,4.90
2018-12-26T12:52:49.414Z,5.00
2018-12-26T12:55:56.130Z,5.00
2018-12-26T12:59:01.259Z,5.00
2018-12-26T13:02:06.386Z,5.00
2018-12-26T13:05:11.490Z,5.00
2018-12-26T13:08:16.486Z,5.00
2018-12-26T13:11:21.436Z,5.00
2018-12-26T13:14:26.399Z,5.10
2018-12-26T13:17:31.354Z,5.20
2018-12-26T13:20:36.367Z,5.30
2018-12-26T13:23:41.400Z,5.40
2018-12-26T13:26:46.441Z,5.50
2018-12-26T13:29:53.899Z,5.60
2018-12-26T13:32:58.111Z,5.70
2018-12-26T13:36:03.521Z,5.70
2018-12-26T13:39:08.639Z,5.70
2018-12-26T13:42:13.675Z,5.70
2018-12-26T13:45:19.471Z,5.80
2018-12-26T13:48:24.439Z,5.80
2018-12-26T13:51:29.470Z,5.90
2018-12-26T13:54:34.516Z,5.90
2018-12-26T13:57:39.470Z,6.00
2018-12-26T14:00:44.663Z,6.00
2018-12-26T14:03:49.690Z,6.00
2018-12-26T14:06:54.661Z,6.10
2018-12-26T14:09:59.680Z,6.10
2018-12-26T14:13:04.719Z,6.00
2018-12-26T14:16:09.742Z,6.00
2018-12-26T14:19:14.773Z,6.00
2018-12-26T14:22:19.736Z,5.90
2018-12-26T14:25:24.707Z,5.90
2018-12-26T14:28:29.647Z,5.90
2018-12-26T14:31:34.604Z,5.90
2018-12-26T14:34:39.546Z,5.80
2018-12-26T14:37:44.579Z,5.80
2018-12-26T14:40:49.518Z,5.80
2018-12-26T14:43:54.559Z,5.80
2018-12-26T14:46:59.501Z,5.80
2018-12-26T14:50:05.134Z,5.80
2018-12-26T14:53:10.075Z,5.80
2018-12-26T14:56:15.119Z,5.70
2018-12-26T14:59:20.122Z,5.70
2018-12-26T15:02:25.175Z,5.70
2018-12-26T15:05:30.187Z,5.60
2018-12-26T15:08:35.152Z,5.60
2018-12-26T15:11:40.166Z,5.60
2018-12-26T15:14:45.195Z,5.70
2018-12-26T15:17:50.228Z,5.70
2018-12-26T15:20:55.247Z,5.60
2018-12-26T15:24:00.345Z,5.60
2018-12-26T15:27:05.360Z,5.60
2018-12-26T15:30:10.487Z,5.60
2018-12-26T15:33:15.531Z,5.50
2018-12-26T15:36:20.489Z,5.40
2018-12-26T15:39:25.486Z,5.30
2018-12-26T15:42:30.432Z,5.30
2018-12-26T15:45:35.459Z,5.30
2018-12-26T15:48:40.547Z,5.20
2018-12-26T15:51:46.379Z,5.10
2018-12-26T15:54:52.632Z,5.10
2018-12-26T15:57:57.560Z,5.00
2018-12-26T16:01:02.739Z,5.00
2018-12-26T16:04:09.429Z,4.90
2018-12-26T16:07:14.517Z,4.90
2018-12-26T16:10:19.552Z,4.90
2018-12-26T16:13:24.571Z,4.90
2018-12-26T16:16:29.532Z,4.90
2018-12-26T16:19:34.559Z,4.80
2018-12-26T16:22:39.821Z,4.90
2018-12-26T16:25:44.888Z,4.90
2018-12-26T16:28:49.931Z,4.90
2018-12-26T16:31:55.031Z,4.90
2018-12-26T16:35:00.263Z,4.90
2018-12-26T16:38:05.383Z,4.90
2018-12-26T16:41:10.470Z,4.90
2018-12-26T16:44:15.504Z,4.80
2018-12-26T16:47:20.451Z,4.80
2018-12-26T16:50:27.103Z,4.80
2018-12-26T16:53:32.562Z,4.80
2018-12-26T16:56:37.647Z,4.80
2018-12-26T16:59:42.701Z,4.90
2018-12-26T17:02:47.674Z,4.80
2018-12-26T17:05:52.772Z,4.80
2018-12-26T17:08:57.720Z,4.80
2018-12-26T17:12:02.783Z,4.80
2018-12-26T17:15:07.896Z,4.70
2018-12-26T17:18:13.180Z,4.60
2018-12-26T17:21:18.203Z,4.60
2018-12-26T17:24:23.240Z,4.60
2018-12-26T17:27:28.210Z,4.60
2018-12-26T17:30:33.251Z,4.60
2018-12-26T17:33:38.280Z,4.60
2018-12-26T17:36:43.403Z,4.70
2018-12-26T17:39:48.444Z,4.60
2018-12-26T17:42:53.393Z,4.60
2018-12-26T17:45:58.361Z,4.60
2018-12-26T17:49:03.401Z,4.60
2018-12-26T17:52:08.358Z,4.60
2018-12-26T17:55:54.852Z,4.60
2018-12-26T17:59:17.182Z,4.60
2018-12-26T18:02:27.010Z,4.60
2018-12-26T18:05:31.968Z,4.50
2018-12-26T18:08:37.099Z,4.50
2018-12-26T18:11:42.283Z,4.50
2018-12-26T18:14:47.555Z,4.50
2018-12-26T18:17:52.660Z,4.60
2018-12-26T18:20:57.838Z,4.60
2018-12-26T18:24:02.996Z,4.50
2018-12-26T18:27:08.131Z,4.50
2018-12-26T18:30:13.391Z,4.60
2018-12-26T18:33:18.654Z,4.60
2018-12-26T18:36:23.948Z,4.60
2018-12-26T18:39:29.111Z,4.60
2018-12-26T18:42:34.432Z,4.60
2018-12-26T18:45:39.698Z,4.50
2018-12-26T18:48:44.811Z,4.50
2018-12-26T18:51:49.871Z,4.60
2018-12-26T18:54:55.012Z,4.60
2018-12-26T18:58:00.090Z,4.60
2018-12-26T19:01:05.427Z,4.60
2018-12-26T19:04:10.556Z,4.60
2018-12-26T19:07:15.687Z,4.60
2018-12-26T19:10:20.968Z,4.60
2018-12-26T19:13:26.059Z,4.60
2018-12-26T19:16:31.074Z,4.60
2018-12-26T19:19:36.420Z,4.60
2018-12-26T19:22:41.602Z,4.50
2018-12-26T19:25:46.830Z,4.50
2018-12-26T19:28:51.862Z,4.50
2018-12-26T19:31:56.895Z,4.50
2018-12-26T19:35:02.078Z,4.60
2018-12-26T19:38:07.288Z,4.60
2018-12-26T19:41:12.246Z,4.50
2018-12-26T19:44:17.304Z,4.50
2018-12-26T19:47:22.252Z,4.40
2018-12-26T19:50:27.283Z,4.40
2018-12-26T19:53:32.298Z,4.40
2018-12-26T19:56:37.258Z,4.40
2018-12-26T19:59:42.354Z,4.40
2018-12-26T20:02:47.347Z,4.30
2018-12-26T20:05:52.378Z,4.30
2018-12-26T20:08:57.331Z,4.30
2018-12-26T20:12:06.098Z,4.30
2018-12-26T20:15:11.231Z,4.40
2018-12-26T20:18:16.260Z,4.40
2018-12-26T20:21:21.215Z,4.40
2018-12-26T20:24:26.253Z,4.40
2018-12-26T20:27:31.302Z,4.40
2018-12-26T20:30:36.327Z,4.40
2018-12-26T20:33:41.363Z,4.40
2018-12-26T20:36:46.407Z,4.40
2018-12-26T20:39:51.379Z,4.40
2018-12-26T20:42:56.403Z,4.40
2018-12-26T20:46:01.515Z,4.40
2018-12-26T20:49:06.543Z,4.40
2018-12-26T20:52:11.575Z,4.40
2018-12-26T20:55:16.659Z,4.40
2018-12-26T20:58:21.696Z,4.30
2018-12-26T21:01:29.024Z,4.30
2018-12-26T21:04:34.072Z,4.30
2018-12-26T21:07:39.110Z,4.30
2018-12-26T21:10:44.138Z,4.30
2018-12-26T21:13:49.189Z,4.40
2018-12-26T21:16:55.171Z,4.30
2018-12-26T21:20:00.531Z,4.40
2018-12-26T21:23:05.895Z,4.40
2018-12-26T21:26:11.002Z,4.40
2018-12-26T21:29:16.125Z,4.40
2018-12-26T21:32:21.173Z,4.40
2018-12-26T21:35:26.203Z,4.40
2018-12-26T21:38:31.258Z,4.40
2018-12-26T21:41:36.215Z,4.40
2018-12-26T21:44:41.299Z,4.40
2018-12-26T21:47:46.364Z,4.50
2018-12-26T21:50:51.510Z,4.50
2018-12-26T21:53:56.537Z,4.50
2018-12-26T21:57:01.643Z,4.50
2018-12-26T22:00:07.815Z,4.60
2018-12-26T22:03:12.861Z,4.60
2018-12-26T22:06:17.919Z,4.60
2018-12-26T22:09:22.883Z,4.60
2018-12-26T22:12:28.194Z,4.60
2018-12-26T22:15:33.302Z,4.60
2018-12-26T22:18:38.333Z,4.60
2018-12-26T22:21:43.304Z,4.60
2018-12-26T22:24:48.272Z,4.60
2018-12-26T22:27:53.233Z,4.60
2018-12-26T22:30:58.263Z,4.60
2018-12-26T22:34:03.407Z,4.60
2018-12-26T22:37:08.442Z,4.60
2018-12-26T22:40:13.404Z,4.60
2018-12-26T22:43:18.376Z,4.60
2018-12-26T22:46:23.405Z,4.60
2018-12-26T22:49:28.383Z,4.60
2018-12-26T22:52:33.392Z,4.60
2018-12-26T22:55:38.358Z,4.50
2018-12-26T22:58:43.337Z,4.50
2018-12-26T23:01:48.391Z,4.60
2018-12-26T23:04:53.359Z,4.60
2018-12-26T23:07:58.387Z,4.60
2018-12-26T23:11:03.431Z,4.60
2018-12-26T23:14:08.392Z,4.60
2018-12-26T23:17:13.522Z,4.60
2018-12-26T23:20:18.551Z,4.60
2018-12-26T23:23:23.537Z,4.60
2018-12-26T23:26:28.571Z,4.60
2018-12-26T23:29:33.595Z,4.50
2018-12-26T23:32:38.615Z,4.50
2018-12-26T23:35:43.656Z,4.50
2018-12-26T23:38:48.598Z,4.50
2018-12-26T23:41:53.551Z,4.60
2018-12-26T23:44:58.515Z,4.60
2018-12-26T23:48:03.616Z,4.60
2018-12-26T23:51:08.570Z,4.60
2018-12-26T23:54:13.558Z,4.60
2018-12-26T23:57:18.512Z,4.60
